Time;durP1;ratioP1;P1;durP2;ratioP2;P2;SDS_P1;SDS_P2;PMS_P1;PMS_P2;Temp;Humidity;BMP_temperature;BMP_pressure;BME280_temperature;BME280_humidity;BME280_pressure;Samples;Min_cycle;Max_cycle;Signal;HPM_P1;HPM_P2
2023/01/06 00:00:37;;;;;;;3.03;2.00;;;;;;;;;;5092532;28;20452;-62
2023/01/06 00:03:04;;;;;;;1.60;1.47;;;;;;;;;;5092634;28;20581;-62
2023/01/06 00:05:31;;;;;;;1.40;1.20;;;;;;;;;;5092895;28;20557;-62
2023/01/06 00:07:58;;;;;;;3.20;1.20;;;;;;;;;;5092826;28;20453;-62
2023/01/06 00:10:26;;;;;;;6.37;1.57;;;;;;;;;;5092657;28;20460;-62
2023/01/06 00:12:54;;;;;;;1.80;1.10;;;;;;;;;;5092700;28;20539;-62
2023/01/06 00:15:21;;;;;;;2.40;1.00;;;;;;;;;;5092556;28;20464;-62
2023/01/06 00:17:48;;;;;;;2.93;1.20;;;;;;;;;;5094700;28;20965;-62
2023/01/06 00:20:15;;;;;;;3.55;2.08;;;;;;;;;;5096602;28;20539;-62
2023/01/06 00:22:42;;;;;;;3.07;1.33;;;;;;;;;;5096230;28;20715;-62
2023/01/06 00:25:10;;;;;;;2.05;1.17;;;;;;;;;;5096398;28;20553;-62
2023/01/06 00:27:38;;;;;;;3.73;1.30;;;;;;;;;;5096303;28;20627;-62
2023/01/06 00:30:06;;;;;;;1.15;0.90;;;;;;;;;;5096129;28;20540;-62
2023/01/06 00:32:33;;;;;;;3.25;1.92;;;;;;;;;;5096342;28;20197;-63
2023/01/06 00:35:00;;;;;;;4.75;2.50;;;;;;;;;;5096266;28;20241;-62
2023/01/06 00:37:27;;;;;;;4.10;2.28;;;;;;;;;;5096167;28;20187;-62
2023/01/06 00:39:54;;;;;;;1.98;1.10;;;;;;;;;;5096137;28;20195;-62
2023/01/06 00:42:21;;;;;;;1.38;1.20;;;;;;;;;;5095921;28;20225;-62
2023/01/06 00:44:50;;;;;;;2.27;1.40;;;;;;;;;;5095697;28;20316;-62
2023/01/06 00:47:17;;;;;;;1.87;0.90;;;;;;;;;;5096032;28;20540;-62
2023/01/06 00:49:44;;;;;;;1.35;1.10;;;;;;;;;;5096010;28;20440;-62
2023/01/06 00:52:11;;;;;;;5.43;1.70;;;;;;;;;;5095848;28;20228;-62
2023/01/06 00:54:38;;;;;;;4.35;1.77;;;;;;;;;;5095800;28;20274;-62
2023/01/06 00:57:06;;;;;;;2.00;1.47;;;;;;;;;;5096294;28;20192;-63
2023/01/06 00:59:33;;;;;;;5.10;1.45;;;;;;;;;;5095693;28;20448;-62
2023/01/06 01:02:01;;;;;;;2.23;1.23;;;;;;;;;;5095897;28;20229;-62
2023/01/06 01:04:29;;;;;;;3.00;1.20;;;;;;;;;;5095810;28;20540;-62
2023/01/06 01:06:56;;;;;;;2.20;1.80;;;;;;;;;;5095684;28;20214;-62
2023/01/06 01:09:23;;;;;;;2.95;1.73;;;;;;;;;;5095620;28;20550;-62
2023/01/06 01:12:10;;;;;;;3.53;1.60;;;;;;;;;;5095449;28;20189;-62
2023/01/06 01:14:37;;;;;;;2.50;1.10;;;;;;;;;;5095635;28;20449;-62
2023/01/06 01:17:06;;;;;;;3.42;1.48;;;;;;;;;;5095527;28;20220;-62
2023/01/06 01:19:33;;;;;;;4.50;1.20;;;;;;;;;;5095440;28;20191;-62
2023/01/06 01:22:00;;;;;;;3.15;1.60;;;;;;;;;;5095264;28;20225;-62
2023/01/06 01:24:27;;;;;;;5.65;1.50;;;;;;;;;;5095239;28;20188;-62
2023/01/06 01:26:54;;;;;;;3.65;1.10;;;;;;;;;;5095403;28;20223;-62
2023/01/06 01:29:21;;;;;;;4.95;1.92;;;;;;;;;;5095172;28;20716;-62
2023/01/06 01:31:48;;;;;;;2.35;1.38;;;;;;;;;;5095215;28;20201;-62
2023/01/06 01:34:17;;;;;;;8.43;1.80;;;;;;;;;;5095191;28;20647;-62
2023/01/06 01:36:45;;;;;;;1.15;1.05;;;;;;;;;;5094972;28;20214;-62
2023/01/06 01:39:12;;;;;;;2.97;1.70;;;;;;;;;;5095111;28;20195;-63
2023/01/06 01:41:39;;;;;;;2.20;1.60;;;;;;;;;;5094994;28;20557;-63
2023/01/06 01:44:21;;;;;;;4.70;2.38;;;;;;;;;;5094881;28;20547;-63
2023/01/06 01:46:49;;;;;;;2.33;1.40;;;;;;;;;;5094614;28;20199;-63
2023/01/06 01:49:18;;;;;;;3.00;2.05;;;;;;;;;;5094714;28;20452;-63
2023/01/06 01:51:47;;;;;;;4.03;1.90;;;;;;;;;;5094926;28;20637;-63
2023/01/06 01:54:15;;;;;;;1.67;1.57;;;;;;;;;;5094826;28;20230;-63
2023/01/06 01:56:46;;;;;;;3.40;1.30;;;;;;;;;;5094798;28;20456;-63
2023/01/06 01:59:15;;;;;;;1.65;1.33;;;;;;;;;;5094723;28;20278;-63
2023/01/06 02:01:42;;;;;;;2.00;1.20;;;;;;;;;;5094434;28;20233;-63
2023/01/06 02:04:09;;;;;;;3.60;1.40;;;;;;;;;;5094721;28;20196;-63
2023/01/06 02:06:40;;;;;;;1.87;1.30;;;;;;;;;;5094650;28;20282;-63
2023/01/06 02:09:08;;;;;;;3.67;1.63;;;;;;;;;;5094586;28;20532;-63
2023/01/06 02:11:36;;;;;;;1.98;1.50;;;;;;;;;;5094471;28;20192;-63
2023/01/06 02:14:08;;;;;;;7.38;1.70;;;;;;;;;;5094356;28;20281;-63
2023/01/06 02:16:40;;;;;;;2.45;1.10;;;;;;;;;;5094306;28;20192;-63
2023/01/06 02:19:12;;;;;;;1.60;1.50;;;;;;;;;;5094240;28;20654;-63
2023/01/06 02:21:49;;;;;;;2.72;1.80;;;;;;;;;;5094225;28;20607;-63
2023/01/06 02:24:33;;;;;;;3.20;2.10;;;;;;;;;;5094094;28;20678;-63
2023/01/06 02:27:22;;;;;;;6.43;1.73;;;;;;;;;;5094055;28;20452;-63
2023/01/06 02:30:00;;;;;;;1.58;1.30;;;;;;;;;;5094116;28;20445;-63
2023/01/06 02:32:37;;;;;;;1.63;1.27;;;;;;;;;;5094109;28;20283;-63
2023/01/06 02:35:12;;;;;;;1.80;1.10;;;;;;;;;;5093896;28;20535;-63
2023/01/06 02:37:44;;;;;;;2.67;1.30;;;;;;;;;;5094114;28;20282;-63
2023/01/06 02:40:17;;;;;;;1.85;1.30;;;;;;;;;;5093510;28;20279;-63
2023/01/06 02:42:46;;;;;;;1.45;1.35;;;;;;;;;;5093825;28;20602;-63
2023/01/06 02:45:18;;;;;;;1.43;1.10;;;;;;;;;;5093705;28;20218;-63
2023/01/06 02:47:50;;;;;;;4.70;1.17;;;;;;;;;;5093730;28;20820;-64
2023/01/06 02:50:20;;;;;;;2.60;1.37;;;;;;;;;;5093871;28;20543;-63
2023/01/06 02:52:54;;;;;;;2.13;1.23;;;;;;;;;;5093628;28;20992;-63
2023/01/06 02:55:22;;;;;;;3.93;1.00;;;;;;;;;;5093717;28;20452;-63
2023/01/06 02:57:52;;;;;;;1.10;1.00;;;;;;;;;;5093542;28;20445;-63
2023/01/06 03:00:22;;;;;;;1.85;1.05;;;;;;;;;;5093389;28;20196;-63
2023/01/06 03:02:53;;;;;;;3.78;1.35;;;;;;;;;;5093686;28;20581;-63
2023/01/06 03:05:22;;;;;;;2.75;0.88;;;;;;;;;;5093528;28;20223;-62
2023/01/06 03:07:49;;;;;;;3.05;1.00;;;;;;;;;;5093432;28;20201;-62
2023/01/06 03:10:18;;;;;;;7.43;1.60;;;;;;;;;;5093296;28;20278;-62
2023/01/06 03:12:48;;;;;;;2.22;1.15;;;;;;;;;;5093157;28;20245;-63
2023/01/06 03:15:15;;;;;;;2.10;1.00;;;;;;;;;;5093474;28;20560;-63
2023/01/06 03:17:42;;;;;;;1.60;1.03;;;;;;;;;;5093372;28;20284;-63
2023/01/06 03:20:12;;;;;;;1.08;0.95;;;;;;;;;;5093280;28;20491;-62
2023/01/06 03:22:39;;;;;;;3.80;1.13;;;;;;;;;;5093095;28;20678;-62
2023/01/06 03:25:06;;;;;;;1.30;1.00;;;;;;;;;;5093092;28;20904;-63
2023/01/06 03:27:33;;;;;;;1.73;1.40;;;;;;;;;;5093234;28;20192;-63
2023/01/06 03:30:00;;;;;;;3.83;1.55;;;;;;;;;;5093220;28;20282;-63
2023/01/06 03:32:29;;;;;;;5.15;1.00;;;;;;;;;;5093143;28;20195;-62
2023/01/06 03:35:01;;;;;;;1.40;0.90;;;;;;;;;;5093072;28;20283;-63
2023/01/06 03:37:32;;;;;;;2.47;0.90;;;;;;;;;;5092939;28;20630;-63
2023/01/06 03:40:05;;;;;;;3.10;1.13;;;;;;;;;;5093175;28;20201;-62
2023/01/06 03:45:28;;;;;;;2.15;1.00;;;;;;;;;;5092818;28;20652;-63
2023/01/06 03:47:59;;;;;;;1.30;1.20;;;;;;;;;;5092891;28;20194;-63
2023/01/06 03:50:29;;;;;;;1.98;1.00;;;;;;;;;;5093096;28;20202;-63
2023/01/06 03:52:59;;;;;;;4.20;1.30;;;;;;;;;;5095669;28;20191;-63
2023/01/06 03:55:30;;;;;;;4.15;1.10;;;;;;;;;;5097125;28;20456;-63
2023/01/06 03:57:59;;;;;;;2.47;1.05;;;;;;;;;;5097009;28;20297;-63
2023/01/06 04:00:28;;;;;;;3.15;0.90;;;;;;;;;;5096881;28;20196;-63
2023/01/06 04:02:56;;;;;;;2.03;1.10;;;;;;;;;;5097033;28;20637;-63
2023/01/06 04:05:24;;;;;;;3.30;1.30;;;;;;;;;;5096912;28;20282;-63
2023/01/06 04:07:51;;;;;;;3.25;1.10;;;;;;;;;;5096922;28;20282;-63
2023/01/06 04:10:20;;;;;;;4.05;1.10;;;;;;;;;;5096718;28;20276;-63
2023/01/06 04:12:46;;;;;;;2.85;1.20;;;;;;;;;;5096625;28;20290;-63
2023/01/06 04:15:14;;;;;;;2.50;1.95;;;;;;;;;;5096543;28;20198;-63
2023/01/06 04:17:42;;;;;;;1.10;1.00;;;;;;;;;;5096764;28;20191;-63
2023/01/06 04:20:10;;;;;;;2.50;1.00;;;;;;;;;;5096794;28;20194;-63
2023/01/06 04:22:37;;;;;;;8.85;1.10;;;;;;;;;;5096459;28;20633;-63
2023/01/06 04:25:05;;;;;;;2.38;1.10;;;;;;;;;;5096514;28;20197;-63
2023/01/06 04:27:33;;;;;;;1.20;0.95;;;;;;;;;;5096313;28;20673;-63
2023/01/06 04:30:00;;;;;;;2.80;1.20;;;;;;;;;;5096526;28;20286;-63
2023/01/06 04:32:27;;;;;;;2.13;1.10;;;;;;;;;;5096323;28;20202;-63
2023/01/06 04:34:54;;;;;;;1.67;0.90;;;;;;;;;;5096161;28;20196;-63
2023/01/06 04:37:21;;;;;;;3.57;1.07;;;;;;;;;;5096270;28;20453;-62
2023/01/06 04:39:48;;;;;;;1.60;1.20;;;;;;;;;;5096127;28;20806;-63
2023/01/06 04:42:14;;;;;;;2.60;1.10;;;;;;;;;;5095846;28;20556;-62
2023/01/06 04:44:43;;;;;;;3.38;1.10;;;;;;;;;;5095429;28;20476;-63
2023/01/06 04:47:10;;;;;;;2.90;1.13;;;;;;;;;;5094987;28;20190;-63
2023/01/06 04:49:37;;;;;;;2.07;1.60;;;;;;;;;;5094851;28;20445;-63
2023/01/06 04:52:04;;;;;;;1.33;1.00;;;;;;;;;;5094753;28;20452;-63
2023/01/06 04:54:31;;;;;;;1.67;1.08;;;;;;;;;;5094584;28;20492;-64
2023/01/06 04:56:58;;;;;;;3.28;1.25;;;;;;;;;;5094588;28;20282;-63
2023/01/06 04:59:25;;;;;;;2.35;1.15;;;;;;;;;;5094767;28;20187;-63
2023/01/06 05:01:53;;;;;;;2.97;1.08;;;;;;;;;;5094539;28;20195;-63
2023/01/06 05:04:20;;;;;;;1.50;1.05;;;;;;;;;;5094257;28;20244;-63
2023/01/06 05:06:47;;;;;;;2.03;1.20;;;;;;;;;;5094506;28;20199;-63
2023/01/06 05:09:14;;;;;;;2.65;1.00;;;;;;;;;;5094324;28;20199;-63
2023/01/06 05:11:41;;;;;;;8.23;1.58;;;;;;;;;;5094513;28;20191;-63
2023/01/06 05:14:08;;;;;;;1.10;1.00;;;;;;;;;;5094626;28;20199;-63
2023/01/06 05:16:36;;;;;;;7.18;1.13;;;;;;;;;;5094412;28;20201;-63
2023/01/06 05:19:05;;;;;;;2.10;1.30;;;;;;;;;;5094234;28;20579;-62
2023/01/06 05:21:32;;;;;;;2.90;1.10;;;;;;;;;;5094200;28;20195;-63
2023/01/06 05:23:59;;;;;;;3.10;1.52;;;;;;;;;;5094084;28;20229;-63
2023/01/06 05:26:26;;;;;;;2.60;1.20;;;;;;;;;;5094368;28;20231;-63
2023/01/06 05:28:53;;;;;;;1.55;1.00;;;;;;;;;;5094291;28;20200;-63
2023/01/06 05:31:20;;;;;;;2.33;1.10;;;;;;;;;;5094182;28;20227;-63
2023/01/06 05:33:47;;;;;;;1.70;0.90;;;;;;;;;;5094057;28;20276;-63
2023/01/06 05:36:17;;;;;;;1.98;1.00;;;;;;;;;;5093972;28;20192;-63
2023/01/06 05:38:44;;;;;;;2.10;1.10;;;;;;;;;;5093957;28;20282;-63
2023/01/06 05:41:11;;;;;;;2.63;1.60;;;;;;;;;;5094099;28;20191;-63
2023/01/06 05:43:38;;;;;;;2.30;1.20;;;;;;;;;;5093873;28;20309;-63
2023/01/06 05:46:06;;;;;;;3.00;1.33;;;;;;;;;;5060840;28;962027;-63
2023/01/06 05:48:33;;;;;;;2.60;0.90;;;;;;;;;;5094913;28;20191;-62
2023/01/06 05:51:03;;;;;;;2.85;1.10;;;;;;;;;;5094485;28;20454;-63
2023/01/06 05:53:32;;;;;;;4.00;1.50;;;;;;;;;;5094668;28;20274;-63
2023/01/06 05:56:00;;;;;;;4.95;1.10;;;;;;;;;;5094685;28;20192;-63
2023/01/06 05:58:27;;;;;;;3.90;1.23;;;;;;;;;;5094637;28;20227;-63
2023/01/06 06:00:54;;;;;;;2.47;1.40;;;;;;;;;;5094617;28;20207;-63
2023/01/06 06:03:21;;;;;;;2.33;1.30;;;;;;;;;;5094348;28;20232;-63
2023/01/06 06:05:48;;;;;;;3.03;1.42;;;;;;;;;;5094640;28;20218;-63
2023/01/06 06:08:15;;;;;;;2.58;1.40;;;;;;;;;;5094566;28;20711;-63
2023/01/06 06:10:43;;;;;;;3.45;1.65;;;;;;;;;;5094396;28;20281;-63
2023/01/06 06:13:10;;;;;;;3.58;1.40;;;;;;;;;;5094344;28;20377;-63
2023/01/06 06:15:37;;;;;;;1.35;1.25;;;;;;;;;;5093532;28;20277;-63
2023/01/06 06:18:04;;;;;;;4.22;1.70;;;;;;;;;;5094112;28;20282;-63
2023/01/06 06:20:31;;;;;;;5.33;1.50;;;;;;;;;;5094267;28;20201;-63
2023/01/06 06:22:58;;;;;;;7.05;1.55;;;;;;;;;;5094159;28;20636;-63
2023/01/06 06:25:25;;;;;;;2.10;1.27;;;;;;;;;;5093868;28;20683;-63
2023/01/06 06:27:57;;;;;;;2.67;1.45;;;;;;;;;;5093824;28;20265;-63
2023/01/06 06:30:24;;;;;;;1.83;1.30;;;;;;;;;;5094052;28;20553;-63
2023/01/06 06:32:51;;;;;;;3.92;1.50;;;;;;;;;;5094127;28;20192;-63
2023/01/06 06:35:18;;;;;;;7.78;1.80;;;;;;;;;;5093937;28;20285;-63
2023/01/06 06:37:45;;;;;;;1.80;1.60;;;;;;;;;;5093845;28;20195;-63
2023/01/06 06:40:12;;;;;;;2.17;1.33;;;;;;;;;;5093730;28;20218;-63
2023/01/06 06:42:39;;;;;;;2.13;1.60;;;;;;;;;;5093322;28;20952;-63
2023/01/06 06:45:09;;;;;;;1.42;1.33;;;;;;;;;;5093431;28;20319;-63
2023/01/06 06:47:36;;;;;;;4.15;1.55;;;;;;;;;;5093713;28;20195;-63
2023/01/06 06:50:03;;;;;;;2.67;1.60;;;;;;;;;;5093655;28;20187;-63
2023/01/06 06:52:29;;;;;;;2.97;1.80;;;;;;;;;;5093452;28;20540;-63
2023/01/06 06:54:56;;;;;;;3.38;1.50;;;;;;;;;;5093386;28;20449;-63
2023/01/06 06:57:23;;;;;;;3.60;1.80;;;;;;;;;;5093324;28;20663;-63
2023/01/06 06:59:50;;;;;;;5.50;2.40;;;;;;;;;;5093234;28;20284;-63
2023/01/06 07:02:19;;;;;;;3.83;1.57;;;;;;;;;;5093452;28;20469;-63
2023/01/06 07:04:45;;;;;;;3.83;1.77;;;;;;;;;;5093269;28;20567;-62
2023/01/06 07:07:12;;;;;;;3.67;1.70;;;;;;;;;;5093183;28;20905;-62
2023/01/06 07:09:39;;;;;;;4.57;1.43;;;;;;;;;;5093252;28;20924;-62
2023/01/06 07:12:07;;;;;;;4.90;2.13;;;;;;;;;;5092905;28;20905;-63
2023/01/06 07:14:34;;;;;;;4.53;1.90;;;;;;;;;;5093106;28;20454;-63
2023/01/06 07:17:01;;;;;;;2.03;1.45;;;;;;;;;;5093242;28;20776;-63
2023/01/06 07:19:29;;;;;;;3.72;2.47;;;;;;;;;;5093078;28;20192;-63
2023/01/06 07:21:56;;;;;;;6.73;2.10;;;;;;;;;;5093049;28;20201;-62
2023/01/06 07:24:23;;;;;;;5.50;2.37;;;;;;;;;;5092931;28;20815;-63
2023/01/06 07:26:50;;;;;;;3.83;1.90;;;;;;;;;;5092671;28;20944;-62
2023/01/06 07:29:17;;;;;;;8.23;2.70;;;;;;;;;;5093084;28;20544;-62
2023/01/06 07:31:44;;;;;;;4.53;1.77;;;;;;;;;;5093080;28;20552;-62
2023/01/06 07:34:11;;;;;;;6.30;1.93;;;;;;;;;;5092841;28;20537;-63
2023/01/06 07:36:40;;;;;;;3.77;2.00;;;;;;;;;;5092744;28;20960;-65
2023/01/06 07:39:07;;;;;;;4.18;3.20;;;;;;;;;;5092818;28;20456;-63
2023/01/06 07:41:33;;;;;;;4.33;2.80;;;;;;;;;;5092803;28;20756;-63
2023/01/06 07:44:01;;;;;;;2.42;2.33;;;;;;;;;;5092577;28;20485;-63
2023/01/06 07:46:28;;;;;;;4.90;2.83;;;;;;;;;;5092794;28;20195;-62
2023/01/06 07:48:54;;;;;;;3.97;2.33;;;;;;;;;;5092515;28;20454;-63
2023/01/06 07:51:21;;;;;;;5.50;2.50;;;;;;;;;;5092652;28;20793;-62
2023/01/06 07:53:50;;;;;;;2.30;1.90;;;;;;;;;;5092509;28;20456;-63
2023/01/06 07:56:17;;;;;;;5.50;2.73;;;;;;;;;;5092841;28;20452;-63
2023/01/06 07:58:44;;;;;;;3.87;2.27;;;;;;;;;;5092738;28;20446;-63
2023/01/06 08:01:11;;;;;;;3.23;2.53;;;;;;;;;;5092586;28;20450;-63
2023/01/06 08:03:38;;;;;;;5.55;2.28;;;;;;;;;;5092544;28;20507;-63
2023/01/06 08:06:09;;;;;;;4.93;2.72;;;;;;;;;;5092626;28;20192;-63
2023/01/06 08:08:36;;;;;;;5.20;3.00;;;;;;;;;;5092478;28;20306;-63
2023/01/06 08:11:05;;;;;;;3.45;2.40;;;;;;;;;;5092671;28;20449;-63
2023/01/06 08:13:32;;;;;;;5.70;3.20;;;;;;;;;;5092583;28;20282;-63
2023/01/06 08:16:00;;;;;;;4.77;2.80;;;;;;;;;;5092483;28;20450;-63
2023/01/06 08:18:28;;;;;;;2.57;2.37;;;;;;;;;;5092447;28;20456;-63
2023/01/06 08:21:00;;;;;;;5.50;2.60;;;;;;;;;;5092306;28;20465;-63
2023/01/06 08:23:27;;;;;;;4.03;2.30;;;;;;;;;;5092495;28;20478;-63
2023/01/06 08:26:01;;;;;;;3.60;2.37;;;;;;;;;;5092759;28;20893;-63
2023/01/06 08:28:29;;;;;;;3.10;2.50;;;;;;;;;;5092335;28;20453;-63
2023/01/06 08:30:56;;;;;;;7.10;2.70;;;;;;;;;;5092269;28;20782;-63
2023/01/06 08:33:24;;;;;;;7.10;2.70;;;;;;;;;;5092238;28;20287;-63
2023/01/06 08:35:51;;;;;;;4.03;3.07;;;;;;;;;;5092268;28;20503;-63
2023/01/06 08:38:18;;;;;;;5.93;2.50;;;;;;;;;;5093706;28;20453;-63
2023/01/06 08:40:45;;;;;;;6.60;3.33;;;;;;;;;;5096052;28;20453;-56
2023/01/06 08:43:12;;;;;;;4.30;3.40;;;;;;;;;;5095812;28;20454;-61
2023/01/06 08:45:40;;;;;;;3.30;2.60;;;;;;;;;;5095592;28;20570;-60
2023/01/06 08:48:07;;;;;;;7.03;3.27;;;;;;;;;;5095737;28;20465;-56
2023/01/06 08:50:34;;;;;;;5.30;2.80;;;;;;;;;;5095843;28;20489;-57
2023/01/06 08:53:01;;;;;;;4.10;2.93;;;;;;;;;;5095502;28;20454;-68
2023/01/06 08:55:28;;;;;;;5.73;3.27;;;;;;;;;;5095681;28;20856;-69
2023/01/06 08:57:55;;;;;;;5.13;3.07;;;;;;;;;;5095497;28;20451;-59
2023/01/06 09:00:22;;;;;;;7.13;3.60;;;;;;;;;;5095616;28;20485;-62
2023/01/06 09:02:50;;;;;;;4.57;3.37;;;;;;;;;;5095464;28;20806;-64
2023/01/06 09:05:18;;;;;;;5.60;3.17;;;;;;;;;;5095516;28;20568;-66
2023/01/06 09:07:44;;;;;;;3.00;2.67;;;;;;;;;;5096034;28;20450;-60
2023/01/06 09:10:12;;;;;;;4.30;3.87;;;;;;;;;;5095466;28;20465;-59
2023/01/06 09:12:39;;;;;;;6.60;3.97;;;;;;;;;;5095368;28;20457;-63
2023/01/06 09:15:06;;;;;;;10.53;4.30;;;;;;;;;;5095215;28;20478;-59
2023/01/06 09:17:33;;;;;;;5.33;3.40;;;;;;;;;;5095149;28;20442;-60
2023/01/06 09:20:02;;;;;;;6.93;3.60;;;;;;;;;;5095414;28;20452;-59
2023/01/06 09:22:29;;;;;;;3.97;3.20;;;;;;;;;;5095188;28;20445;-60
2023/01/06 09:24:56;;;;;;;7.17;3.33;;;;;;;;;;5095025;28;20543;-59
2023/01/06 09:27:23;;;;;;;3.67;3.37;;;;;;;;;;5094977;28;20544;-59
2023/01/06 09:29:50;;;;;;;5.30;3.67;;;;;;;;;;5094963;28;20812;-59
2023/01/06 09:32:17;;;;;;;7.53;3.13;;;;;;;;;;5095100;28;20442;-60
2023/01/06 09:34:44;;;;;;;5.90;3.50;;;;;;;;;;5095017;28;20554;-61
2023/01/06 09:37:12;;;;;;;3.80;3.10;;;;;;;;;;5094325;28;20821;-59
2023/01/06 09:39:39;;;;;;;5.77;3.50;;;;;;;;;;5094766;28;20450;-59
2023/01/06 09:42:21;;;;;;;5.43;3.77;;;;;;;;;;5094715;28;20447;-59
2023/01/06 09:44:50;;;;;;;3.87;3.43;;;;;;;;;;5094456;28;21062;-58
2023/01/06 09:47:19;;;;;;;3.00;2.80;;;;;;;;;;5094868;28;20802;-55
2023/01/06 09:49:48;;;;;;;3.97;3.58;;;;;;;;;;5093351;28;20451;-60
2023/01/06 09:52:24;;;;;;;7.70;4.23;;;;;;;;;;5094575;28;20192;-60
2023/01/06 09:54:54;;;;;;;4.73;4.43;;;;;;;;;;5094491;28;20552;-60
2023/01/06 09:57:23;;;;;;;5.00;4.60;;;;;;;;;;5094597;28;20483;-60
2023/01/06 09:59:52;;;;;;;3.77;3.47;;;;;;;;;;5094545;28;20456;-64
2023/01/06 10:02:22;;;;;;;3.67;3.27;;;;;;;;;;5094542;28;20445;-61
2023/01/06 10:04:49;;;;;;;7.20;3.60;;;;;;;;;;5094320;28;20532;-65
2023/01/06 10:07:20;;;;;;;4.47;4.07;;;;;;;;;;5094354;28;20848;-63
2023/01/06 10:09:55;;;;;;;3.57;3.27;;;;;;;;;;5094327;28;20934;-64
2023/01/06 10:12:31;;;;;;;5.10;3.90;;;;;;;;;;5094285;28;20446;-64
2023/01/06 10:15:03;;;;;;;4.60;4.00;;;;;;;;;;5094047;28;20537;-65
2023/01/06 10:17:47;;;;;;;5.00;4.07;;;;;;;;;;5093922;28;20451;-65
2023/01/06 10:20:24;;;;;;;3.77;3.43;;;;;;;;;;5094330;28;20458;-65
2023/01/06 10:22:56;;;;;;;4.43;4.00;;;;;;;;;;5094197;28;20453;-63
2023/01/06 10:25:28;;;;;;;3.70;3.37;;;;;;;;;;5094090;28;20489;-61
2023/01/06 10:27:59;;;;;;;5.90;3.93;;;;;;;;;;5093639;28;20923;-58
2023/01/06 10:30:29;;;;;;;3.40;3.10;;;;;;;;;;5094140;28;20451;-61
2023/01/06 10:32:56;;;;;;;5.30;3.97;;;;;;;;;;5093899;28;20447;-61
2023/01/06 10:35:26;;;;;;;3.67;3.37;;;;;;;;;;5093624;28;20852;-61
2023/01/06 10:37:56;;;;;;;6.90;4.40;;;;;;;;;;5093828;28;21000;-61
2023/01/06 10:40:24;;;;;;;4.00;3.60;;;;;;;;;;5093578;28;20447;-63
2023/01/06 10:42:56;;;;;;;3.50;3.20;;;;;;;;;;5093717;28;20455;-57
2023/01/06 10:45:24;;;;;;;4.87;4.47;;;;;;;;;;5093384;28;20493;-61
2023/01/06 10:47:51;;;;;;;4.20;3.60;;;;;;;;;;5093627;28;20451;-62
2023/01/06 10:50:19;;;;;;;4.30;3.90;;;;;;;;;;5093629;28;20450;-62
2023/01/06 10:52:47;;;;;;;4.03;3.70;;;;;;;;;;5093285;28;20447;-58
2023/01/06 10:55:20;;;;;;;4.40;4.00;;;;;;;;;;5093295;28;20802;-63
2023/01/06 10:57:48;;;;;;;4.17;3.87;;;;;;;;;;5093550;28;20448;-62
2023/01/06 11:00:17;;;;;;;4.63;3.80;;;;;;;;;;5093304;28;20453;-56
2023/01/06 11:02:44;;;;;;;3.77;3.57;;;;;;;;;;5093087;28;20534;-51
2023/01/06 11:05:15;;;;;;;4.10;3.80;;;;;;;;;;5093195;28;20582;-57
2023/01/06 11:07:46;;;;;;;5.10;3.73;;;;;;;;;;5092856;28;20481;-58
2023/01/06 11:10:21;;;;;;;4.27;3.87;;;;;;;;;;5093386;28;20447;-56
2023/01/06 11:12:49;;;;;;;4.27;3.87;;;;;;;;;;5093280;28;20460;-59
2023/01/06 11:15:20;;;;;;;4.60;3.67;;;;;;;;;;5093150;28;20451;-63
2023/01/06 11:17:48;;;;;;;6.20;3.73;;;;;;;;;;5093071;28;20447;-59
2023/01/06 11:20:28;;;;;;;4.13;3.77;;;;;;;;;;5092754;28;20814;-60
2023/01/06 11:22:56;;;;;;;6.43;4.40;;;;;;;;;;5093165;28;20447;-63
2023/01/06 11:25:29;;;;;;;8.00;4.60;;;;;;;;;;5092968;28;20506;-61
2023/01/06 11:28:10;;;;;;;4.40;4.10;;;;;;;;;;5092840;28;20937;-59
2023/01/06 11:30:41;;;;;;;4.20;3.90;;;;;;;;;;5092815;28;20466;-66
2023/01/06 11:33:14;;;;;;;4.70;4.40;;;;;;;;;;5092653;28;20470;-63
2023/01/06 11:35:41;;;;;;;3.93;3.73;;;;;;;;;;5093017;28;20470;-64
2023/01/06 11:38:13;;;;;;;4.70;4.20;;;;;;;;;;5092943;28;20447;-59
2023/01/06 11:40:40;;;;;;;4.90;4.50;;;;;;;;;;5092771;28;20462;-61
2023/01/06 11:43:09;;;;;;;9.10;5.13;;;;;;;;;;5092337;28;20453;-60
2023/01/06 11:45:38;;;;;;;4.47;4.10;;;;;;;;;;5092492;28;20494;-59
2023/01/06 11:48:09;;;;;;;5.50;5.00;;;;;;;;;;5092603;28;20870;-51
2023/01/06 11:50:35;;;;;;;6.57;4.90;;;;;;;;;;5092563;28;20478;-57
2023/01/06 11:53:03;;;;;;;5.67;5.17;;;;;;;;;;5092689;28;20453;-61
2023/01/06 11:55:30;;;;;;;4.93;4.53;;;;;;;;;;5092568;28;20533;-61
2023/01/06 11:58:00;;;;;;;4.90;4.50;;;;;;;;;;5092868;28;20453;-62
2023/01/06 12:00:45;;;;;;;5.80;5.00;;;;;;;;;;5092875;28;20933;-61
2023/01/06 12:03:17;;;;;;;6.80;4.60;;;;;;;;;;5092730;28;20447;-61
2023/01/06 12:05:47;;;;;;;4.20;3.83;;;;;;;;;;5092584;28;20478;-61
2023/01/06 12:08:16;;;;;;;6.20;4.80;;;;;;;;;;5092419;28;20447;-62
2023/01/06 12:10:43;;;;;;;5.77;4.60;;;;;;;;;;5092648;28;20457;-62
2023/01/06 12:13:13;;;;;;;4.17;3.77;;;;;;;;;;5093951;28;20806;-62
2023/01/06 12:15:40;;;;;;;4.23;3.90;;;;;;;;;;5096543;28;20455;-62
2023/01/06 12:18:11;;;;;;;4.27;3.97;;;;;;;;;;5096482;28;20796;-62
2023/01/06 12:20:41;;;;;;;6.10;4.10;;;;;;;;;;5096360;28;20447;-62
2023/01/06 12:23:11;;;;;;;4.47;4.07;;;;;;;;;;5096571;28;20453;-62
2023/01/06 12:25:42;;;;;;;3.53;3.33;;;;;;;;;;5096164;28;20934;-62
2023/01/06 12:28:14;;;;;;;4.00;3.60;;;;;;;;;;5096407;28;20802;-61
2023/01/06 12:30:46;;;;;;;3.90;3.60;;;;;;;;;;5096272;28;20997;-62
2023/01/06 12:33:15;;;;;;;3.70;3.40;;;;;;;;;;5095966;28;20961;-62
2023/01/06 12:35:44;;;;;;;5.03;4.60;;;;;;;;;;5096104;28;20446;-62
2023/01/06 12:38:16;;;;;;;3.67;3.37;;;;;;;;;;5096141;28;20450;-61
2023/01/06 12:40:47;;;;;;;4.13;3.73;;;;;;;;;;5095873;28;20461;-62
2023/01/06 12:43:16;;;;;;;4.57;4.13;;;;;;;;;;5095870;28;20454;-62
2023/01/06 12:45:45;;;;;;;6.37;3.67;;;;;;;;;;5095412;28;20498;-62
2023/01/06 12:48:17;;;;;;;3.67;3.37;;;;;;;;;;5095775;28;20941;-62
2023/01/06 12:50:46;;;;;;;3.77;3.43;;;;;;;;;;5095950;28;20791;-62
2023/01/06 12:53:16;;;;;;;4.03;3.73;;;;;;;;;;5095922;28;20787;-62
2023/01/06 12:55:47;;;;;;;4.17;3.80;;;;;;;;;;5095754;28;20447;-62
2023/01/06 12:58:18;;;;;;;3.80;3.50;;;;;;;;;;5095580;28;20447;-62
2023/01/06 13:00:50;;;;;;;3.23;2.93;;;;;;;;;;5095732;28;20461;-61
2023/01/06 13:03:35;;;;;;;3.23;2.80;;;;;;;;;;5095650;28;20451;-62
2023/01/06 13:06:10;;;;;;;3.93;3.63;;;;;;;;;;5095461;28;20482;-62
2023/01/06 13:08:46;;;;;;;2.50;2.23;;;;;;;;;;5095568;28;20442;-62
2023/01/06 13:11:18;;;;;;;3.83;2.90;;;;;;;;;;5095648;28;20588;-62
2023/01/06 13:13:51;;;;;;;2.80;2.10;;;;;;;;;;5095567;28;20451;-62
2023/01/06 13:16:22;;;;;;;3.30;2.50;;;;;;;;;;5095339;28;20451;-62
2023/01/06 13:18:56;;;;;;;4.63;2.63;;;;;;;;;;5095304;28;20453;-62
2023/01/06 13:21:24;;;;;;;2.53;2.20;;;;;;;;;;5095523;28;20802;-62
2023/01/06 13:24:04;;;;;;;2.87;2.53;;;;;;;;;;5094997;28;20899;-62
2023/01/06 13:26:38;;;;;;;3.73;2.53;;;;;;;;;;5095158;28;20485;-62
2023/01/06 13:29:11;;;;;;;2.60;2.40;;;;;;;;;;5095150;28;20451;-62
2023/01/06 13:31:46;;;;;;;2.40;2.07;;;;;;;;;;5095290;28;20447;-62
2023/01/06 13:34:28;;;;;;;3.13;2.50;;;;;;;;;;5095035;28;20457;-62
2023/01/06 13:37:09;;;;;;;3.10;2.20;;;;;;;;;;5095100;28;20451;-62
2023/01/06 13:39:39;;;;;;;1.90;1.80;;;;;;;;;;5094870;28;20461;-62
2023/01/06 13:42:08;;;;;;;2.43;1.97;;;;;;;;;;5095105;28;20457;-62
2023/01/06 13:44:37;;;;;;;2.00;1.90;;;;;;;;;;5094752;28;20471;-62
2023/01/06 13:47:06;;;;;;;2.93;2.00;;;;;;;;;;5095312;28;20806;-62
2023/01/06 13:49:34;;;;;;;2.20;2.10;;;;;;;;;;5094726;28;21004;-62
2023/01/06 13:52:01;;;;;;;1.70;1.60;;;;;;;;;;5094621;28;20468;-62
2023/01/06 13:54:47;;;;;;;3.70;1.80;;;;;;;;;;5094483;28;20439;-62
2023/01/06 13:57:31;;;;;;;3.33;1.50;;;;;;;;;;5094707;28;20482;-62
2023/01/06 14:00:14;;;;;;;1.47;1.37;;;;;;;;;;5094510;28;20538;-62
2023/01/06 14:02:56;;;;;;;1.53;1.40;;;;;;;;;;5094369;28;20809;-62
2023/01/06 14:05:49;;;;;;;2.93;1.80;;;;;;;;;;5094193;28;20514;-62
2023/01/06 14:08:17;;;;;;;3.37;1.33;;;;;;;;;;5094328;28;20827;-62
2023/01/06 14:10:45;;;;;;;3.50;1.23;;;;;;;;;;5094374;28;20546;-62
2023/01/06 14:13:21;;;;;;;1.50;1.40;;;;;;;;;;5094245;28;20454;-62
2023/01/06 14:15:56;;;;;;;1.77;1.67;;;;;;;;;;5094570;28;20454;-62
2023/01/06 14:18:43;;;;;;;1.70;1.50;;;;;;;;;;5094125;28;20446;-62
2023/01/06 14:21:18;;;;;;;5.03;2.27;;;;;;;;;;5089273;28;20850;-62
2023/01/06 14:23:55;;;;;;;1.60;1.50;;;;;;;;;;5094225;28;20450;-62
2023/01/06 14:26:22;;;;;;;1.20;1.03;;;;;;;;;;5094026;28;20489;-62
2023/01/06 14:28:51;;;;;;;1.40;1.23;;;;;;;;;;5093993;28;20447;-62
2023/01/06 14:31:48;;;;;;;1.20;1.10;;;;;;;;;;5093837;28;20946;-62
2023/01/06 14:34:18;;;;;;;2.47;1.17;;;;;;;;;;5093819;28;20469;-62
2023/01/06 14:36:45;;;;;;;1.07;0.97;;;;;;;;;;5093291;28;20458;-62
2023/01/06 14:39:19;;;;;;;1.37;1.27;;;;;;;;;;5093907;28;21030;-62
2023/01/06 14:41:52;;;;;;;1.20;1.10;;;;;;;;;;5093703;28;20554;-62
2023/01/06 14:44:22;;;;;;;4.07;1.63;;;;;;;;;;5093526;28;20569;-62
2023/01/06 14:46:51;;;;;;;1.60;1.07;;;;;;;;;;5093685;28;20539;-62
2023/01/06 14:49:20;;;;;;;1.83;1.10;;;;;;;;;;5093488;28;20466;-62
2023/01/06 14:51:47;;;;;;;1.70;1.60;;;;;;;;;;5093538;28;20964;-62
2023/01/06 14:54:19;;;;;;;1.23;1.13;;;;;;;;;;5093670;28;20453;-62
2023/01/06 14:56:52;;;;;;;1.40;1.30;;;;;;;;;;5093397;28;20485;-62
2023/01/06 14:59:21;;;;;;;1.50;1.30;;;;;;;;;;5093620;28;20541;-62